Time;durP1;ratioP1;P1;durP2;ratioP2;P2;SDS_P1;SDS_P2;PMS_P1;PMS_P2;Temp;Humidity;BMP_temperature;BMP_pressure;BME280_temperature;BME280_humidity;BME280_pressure;Samples;Min_cycle;Max_cycle;Signal;HPM_P1;HPM_P2
2020/12/19 00:00:54;;;;;;;23.08;11.27;;;;;;;6.61;81.30;100712.34;8477182;33;20428;-71
2020/12/19 00:05:56;;;;;;;25.63;10.52;;;;;;;6.65;81.38;100711.31;8476383;33;20403;-71
2020/12/19 00:10:59;;;;;;;22.70;10.68;;;;;;;6.63;81.29;100699.88;8476092;33;20215;-71
2020/12/19 00:16:02;;;;;;;18.02;10.52;;;;;;;6.64;81.10;100696.31;8475550;33;20540;-71
2020/12/19 00:21:04;;;;;;;21.73;10.73;;;;;;;6.60;80.83;100692.91;8476059;33;20290;-71
2020/12/19 00:26:07;;;;;;;18.70;11.05;;;;;;;6.59;81.17;100679.72;8473994;33;20140;-71
2020/12/19 00:31:10;;;;;;;24.45;11.45;;;;;;;6.58;81.03;100670.03;8473950;33;20454;-71
2020/12/19 00:36:12;;;;;;;25.40;11.90;;;;;;;6.58;81.96;100667.38;8449738;33;20424;-71
2020/12/19 00:41:20;;;;;;;25.25;12.10;;;;;;;6.66;81.58;100663.47;8472562;33;20222;-71
2020/12/19 00:46:23;;;;;;;23.70;11.45;;;;;;;6.65;81.45;100659.06;8477793;33;20439;-71
2020/12/19 00:51:26;;;;;;;22.60;11.10;;;;;;;6.70;81.69;100648.25;8477115;33;20283;-71
2020/12/19 00:56:29;;;;;;;19.90;11.05;;;;;;;6.66;82.08;100644.88;8478063;33;20431;-71
2020/12/19 01:01:31;;;;;;;19.60;10.47;;;;;;;6.68;81.80;100637.69;8477337;33;20932;-72
2020/12/19 01:06:33;;;;;;;23.05;11.48;;;;;;;6.76;81.95;100637.31;8479258;33;20911;-71
2020/12/19 01:11:38;;;;;;;24.02;10.70;;;;;;;6.82;81.89;100644.13;8477794;33;20526;-72
2020/12/19 01:16:40;;;;;;;23.95;10.02;;;;;;;6.84;81.77;100636.97;8476153;33;20862;-72
2020/12/19 01:21:42;;;;;;;27.35;11.60;;;;;;;6.86;81.65;100627.13;8464053;33;20177;-72
2020/12/19 01:26:47;;;;;;;20.75;10.45;;;;;;;6.86;81.74;100632.44;8459827;33;20461;-72
2020/12/19 01:31:50;;;;;;;16.40;9.07;;;;;;;6.96;81.20;100630.19;8461783;33;20412;-72
2020/12/19 01:36:54;;;;;;;18.85;9.20;;;;;;;6.98;81.83;100621.22;8466512;33;20968;-72
2020/12/19 01:41:57;;;;;;;16.58;8.63;;;;;;;7.02;81.69;100614.84;8465234;33;20504;-72
2020/12/19 01:47:01;;;;;;;17.90;9.27;;;;;;;7.04;81.09;100606.78;8471253;33;20342;-72
2020/12/19 01:52:07;;;;;;;17.75;9.75;;;;;;;7.01;81.22;100601.63;8466181;33;20412;-72
2020/12/19 01:57:13;;;;;;;14.57;8.38;;;;;;;6.95;81.29;100594.81;8454431;33;20429;-72
2020/12/19 02:02:22;;;;;;;22.08;9.90;;;;;;;6.90;80.91;100586.19;8459299;33;20432;-72
2020/12/19 02:07:25;;;;;;;18.00;9.23;;;;;;;6.85;81.34;100583.75;8468102;33;20159;-72
2020/12/19 02:12:28;;;;;;;20.60;9.93;;;;;;;6.77;81.43;100577.09;8473161;33;20521;-72
2020/12/19 02:17:30;;;;;;;18.83;9.93;;;;;;;6.75;81.59;100569.22;8473747;33;20228;-72
2020/12/19 02:22:33;;;;;;;19.98;11.25;;;;;;;6.78;82.18;100577.03;8476095;33;20331;-72
2020/12/19 02:27:37;;;;;;;23.77;11.00;;;;;;;6.83;81.52;100568.88;8480328;33;20425;-72
2020/12/19 02:32:41;;;;;;;24.88;10.63;;;;;;;6.79;81.58;100568.13;8482087;33;20511;-73
2020/12/19 02:37:43;;;;;;;21.23;10.73;;;;;;;6.76;82.20;100562.09;8484209;33;21978;-73
2020/12/19 02:42:46;;;;;;;23.15;10.57;;;;;;;6.77;82.25;100555.84;8481866;33;20258;-72
2020/12/19 02:47:49;;;;;;;23.70;11.40;;;;;;;6.77;82.05;100545.22;8479668;33;20558;-72
2020/12/19 02:52:52;;;;;;;21.35;11.43;;;;;;;6.76;81.95;100541.72;8475929;33;20572;-72
2020/12/19 02:57:55;;;;;;;25.33;11.50;;;;;;;6.73;81.67;100541.88;8474862;33;20467;-72
2020/12/19 03:02:57;;;;;;;22.98;10.48;;;;;;;6.69;81.95;100534.97;8475302;33;20399;-72
2020/12/19 03:07:59;;;;;;;23.35;11.13;;;;;;;6.66;82.16;100529.81;8476652;33;20750;-72
2020/12/19 03:13:03;;;;;;;23.38;11.93;;;;;;;6.62;82.21;100525.59;8476098;33;20463;-72
2020/12/19 03:18:05;;;;;;;28.52;12.10;;;;;;;6.60;82.32;100528.31;8480705;33;20445;-72
2020/12/19 03:23:07;;;;;;;24.23;11.43;;;;;;;6.60;82.45;100514.19;8482682;33;20669;-72
2020/12/19 03:28:10;;;;;;;26.77;13.10;;;;;;;6.61;82.45;100515.91;8487910;33;20141;-72
2020/12/19 03:33:13;;;;;;;27.10;11.75;;;;;;;6.59;82.74;100518.66;8484195;33;21193;-72
2020/12/19 03:38:15;;;;;;;28.90;11.73;;;;;;;6.68;82.76;100517.34;8481034;33;20841;-72
2020/12/19 03:43:18;;;;;;;29.85;12.88;;;;;;;6.66;82.78;100514.78;8481598;33;20211;-72
2020/12/19 03:48:21;;;;;;;28.85;13.00;;;;;;;6.70;82.88;100520.78;8481516;33;20425;-72
2020/12/19 03:53:23;;;;;;;30.50;13.35;;;;;;;6.74;83.42;100508.22;8479603;33;20493;-72
2020/12/19 03:58:26;;;;;;;28.33;12.25;;;;;;;6.77;82.72;100505.41;8479515;33;21512;-72
2020/12/19 04:03:29;;;;;;;27.27;12.07;;;;;;;6.98;82.92;100508.78;8479905;33;20570;-72
2020/12/19 04:08:31;;;;;;;26.55;12.07;;;;;;;7.06;82.96;100491.53;8479935;33;20916;-72
2020/12/19 04:13:34;;;;;;;26.77;11.55;;;;;;;7.19;82.27;100494.44;8479836;33;20144;-72
2020/12/19 04:18:37;;;;;;;25.15;11.57;;;;;;;7.22;82.31;100488.09;8481145;33;20492;-72
2020/12/19 04:23:39;;;;;;;27.40;12.77;;;;;;;7.21;82.16;100489.03;8484497;33;20420;-72
2020/12/19 04:28:42;;;;;;;28.77;12.65;;;;;;;7.27;81.93;100489.59;8477288;33;20132;-72
2020/12/19 04:33:44;;;;;;;27.80;11.50;;;;;;;7.26;81.95;100484.34;8476864;33;21509;-72
2020/12/19 04:38:47;;;;;;;27.20;11.73;;;;;;;7.26;82.03;100490.50;8477477;33;20445;-72
2020/12/19 04:43:50;;;;;;;30.65;12.38;;;;;;;7.18;81.62;100486.53;8478370;33;20153;-72
2020/12/19 04:48:55;;;;;;;31.30;11.57;;;;;;;7.03;81.59;100480.22;8478554;33;20415;-72
2020/12/19 04:53:57;;;;;;;27.55;11.05;;;;;;;6.92;81.68;100475.44;8476891;33;20956;-72
2020/12/19 04:59:03;;;;;;;29.30;11.27;;;;;;;6.89;82.08;100480.91;8477042;33;21414;-72
2020/12/19 05:04:13;;;;;;;25.92;11.38;;;;;;;6.90;81.87;100466.69;8477848;33;20404;-72
2020/12/19 05:09:15;;;;;;;23.45;11.88;;;;;;;6.94;82.08;100465.59;8476792;33;20981;-72
2020/12/19 05:14:20;;;;;;;30.13;12.00;;;;;;;6.89;82.13;100463.16;8475511;33;20556;-72
2020/12/19 05:19:23;;;;;;;23.48;12.23;;;;;;;6.85;81.84;100474.88;8475772;33;20440;-72
2020/12/19 05:24:30;;;;;;;25.65;10.38;;;;;;;6.75;81.69;100467.47;8478205;33;20343;-72
2020/12/19 05:29:33;;;;;;;27.08;12.18;;;;;;;6.57;81.87;100466.56;8472068;33;20420;-72
2020/12/19 05:34:36;;;;;;;25.38;12.13;;;;;;;6.39;81.82;100460.34;8476023;33;20156;-72
2020/12/19 05:39:51;;;;;;;26.40;10.52;;;;;;;6.33;81.65;100455.31;8477168;33;20413;-73
2020/12/19 05:44:54;;;;;;;24.23;11.50;;;;;;;6.35;82.35;100454.31;8478937;33;20581;-72
2020/12/19 05:49:57;;;;;;;25.75;11.85;;;;;;;6.39;82.38;100449.72;8479507;33;20471;-72
2020/12/19 05:55:07;;;;;;;30.83;12.40;;;;;;;6.34;82.53;100452.63;8482043;33;20750;-72
2020/12/19 06:00:12;;;;;;;27.88;12.40;;;;;;;6.30;82.55;100456.34;8481148;33;20417;-72
2020/12/19 06:05:15;;;;;;;23.90;11.45;;;;;;;6.28;82.74;100450.25;8483012;33;20655;-72
2020/12/19 06:10:19;;;;;;;29.88;12.43;;;;;;;6.38;83.11;100448.00;8482545;33;20417;-72
2020/12/19 06:15:55;;;;;;;31.05;13.23;;;;;;;6.56;83.04;100440.97;8484666;33;20603;-72
2020/12/19 06:20:58;;;;;;;29.60;11.57;;;;;;;6.75;82.87;100432.94;8485852;33;20148;-72
2020/12/19 06:26:01;;;;;;;23.70;11.82;;;;;;;6.91;82.81;100433.84;8482616;33;20137;-72
2020/12/19 06:31:09;;;;;;;26.25;11.55;;;;;;;7.10;82.14;100433.78;8489054;33;20193;-72
2020/12/19 06:36:20;;;;;;;28.42;12.48;;;;;;;7.12;81.81;100438.06;8483571;33;20431;-72
2020/12/19 06:41:49;;;;;;;26.70;12.65;;;;;;;7.03;81.85;100427.09;8482967;33;20449;-72
2020/12/19 06:46:54;;;;;;;27.45;11.88;;;;;;;7.06;81.63;100441.06;8483554;33;20532;-72
2020/12/19 06:52:09;;;;;;;30.95;13.48;;;;;;;7.01;81.56;100428.94;8483184;33;20413;-72
2020/12/19 06:57:26;;;;;;;30.60;13.45;;;;;;;6.91;81.58;100436.50;8487997;33;20239;-72
2020/12/19 07:02:29;;;;;;;27.85;11.57;;;;;;;6.84;81.48;100435.13;8483363;33;20415;-72
2020/12/19 07:07:31;;;;;;;31.17;13.13;;;;;;;6.73;81.61;100437.47;8484050;33;20478;-72
2020/12/19 07:12:37;;;;;;;27.85;12.75;;;;;;;6.63;82.05;100443.22;8483959;33;20400;-72
2020/12/19 07:17:48;;;;;;;30.17;12.85;;;;;;;6.61;81.82;100436.25;8484648;33;20544;-72
2020/12/19 07:22:51;;;;;;;31.30;13.38;;;;;;;6.53;81.52;100441.97;8492062;33;20191;-73
2020/12/19 07:27:56;;;;;;;29.85;13.63;;;;;;;6.45;81.80;100433.53;8500456;33;20494;-73
2020/12/19 07:33:00;;;;;;;32.80;13.88;;;;;;;6.41;82.27;100434.59;8484132;33;20470;-73
2020/12/19 07:38:03;;;;;;;29.52;13.07;;;;;;;6.48;82.17;100424.56;8481068;33;20494;-71
2020/12/19 07:43:08;;;;;;;27.27;12.82;;;;;;;6.48;82.22;100433.38;8481034;33;20446;-71
2020/12/19 07:48:11;;;;;;;28.25;12.98;;;;;;;6.48;82.38;100427.22;8479656;33;20469;-71
2020/12/19 07:53:14;;;;;;;27.33;13.00;;;;;;;6.57;81.79;100430.25;8481135;33;20704;-71
2020/12/19 07:58:17;;;;;;;28.88;12.88;;;;;;;6.60;81.80;100431.91;8484323;33;20925;-71
2020/12/19 08:03:20;;;;;;;27.13;12.73;;;;;;;6.67;81.79;100435.97;8484962;33;20528;-71
2020/12/19 08:08:23;;;;;;;25.70;11.60;;;;;;;6.84;81.92;100416.53;8495298;33;20551;-71
2020/12/19 08:13:25;;;;;;;26.40;10.50;;;;;;;7.56;82.04;100432.22;8493084;33;20420;-71
2020/12/19 08:18:29;;;;;;;35.65;15.80;;;;;;;8.21;79.40;100429.53;8485184;33;20603;-71
2020/12/19 08:23:31;;;;;;;21.58;10.85;;;;;;;8.37;77.20;100428.69;8489400;33;20277;-73
2020/12/19 08:28:35;;;;;;;21.45;11.02;;;;;;;8.58;76.46;100445.25;8500559;33;21059;-72
2020/12/19 08:33:46;;;;;;;22.67;11.40;;;;;;;8.88;75.06;100451.47;8488079;33;20149;-72
2020/12/19 08:38:49;;;;;;;24.30;13.57;;;;;;;9.10;74.43;100444.88;8484356;33;20165;-72
2020/12/19 08:43:53;;;;;;;23.48;11.65;;;;;;;9.41;73.84;100443.88;8429504;33;20520;-73
2020/12/19 08:49:02;;;;;;;23.05;10.85;;;;;;;9.71;72.65;100442.97;8427173;33;20498;-72
2020/12/19 08:54:11;;;;;;;20.98;11.15;;;;;;;10.03;71.12;100428.41;8427280;34;21465;-72
2020/12/19 08:59:25;;;;;;;21.08;10.75;;;;;;;10.30;71.17;100437.47;8430125;33;20513;-71
2020/12/19 09:04:29;;;;;;;26.05;11.45;;;;;;;10.34;70.61;100437.16;8442236;34;20650;-71
2020/12/19 09:09:31;;;;;;;23.38;12.43;;;;;;;10.65;69.97;100425.31;8447499;33;20417;-71
2020/12/19 09:14:34;;;;;;;23.02;11.52;;;;;;;10.81;69.18;100433.16;8446877;34;21026;-71
2020/12/19 09:19:37;;;;;;;25.20;12.57;;;;;;;10.88;69.21;100430.94;8446878;33;20398;-71
2020/12/19 09:24:39;;;;;;;23.60;11.77;;;;;;;10.94;69.37;100427.84;8447168;34;20856;-71
2020/12/19 09:29:41;;;;;;;21.77;11.43;;;;;;;11.18;68.74;100425.31;8447176;33;20197;-71
2020/12/19 09:34:44;;;;;;;23.25;11.40;;;;;;;11.60;68.11;100435.81;8445857;34;20192;-71
2020/12/19 09:39:47;;;;;;;19.27;10.25;;;;;;;12.01;66.99;100435.56;8446191;34;20641;-69
2020/12/19 09:44:50;;;;;;;18.20;9.18;;;;;;;12.36;66.94;100427.66;8423104;33;20417;-71
2020/12/19 09:49:53;;;;;;;17.83;10.90;;;;;;;12.95;65.31;100428.66;8450439;34;21189;-70
2020/12/19 09:54:55;;;;;;;18.88;10.63;;;;;;;12.99;64.11;100427.44;8451385;33;20164;-70
2020/12/19 09:59:58;;;;;;;17.85;9.95;;;;;;;12.90;64.61;100421.81;8449879;34;20538;-69
2020/12/19 10:05:02;;;;;;;16.17;8.95;;;;;;;13.15;64.71;100427.13;8447383;33;20594;-70
2020/12/19 10:10:05;;;;;;;14.93;8.52;;;;;;;13.55;63.98;100427.63;8447043;34;20919;-70
2020/12/19 10:15:08;;;;;;;15.25;8.35;;;;;;;13.73;63.02;100438.72;8447067;33;20509;-69
2020/12/19 10:20:12;;;;;;;11.82;7.82;;;;;;;13.68;63.23;100427.47;8450344;34;20586;-70
2020/12/19 10:25:14;;;;;;;14.18;8.40;;;;;;;13.94;62.51;100425.41;8429127;33;20549;-70
2020/12/19 10:30:16;;;;;;;14.27;8.05;;;;;;;14.00;62.43;100417.72;8453685;34;20145;-69
2020/12/19 10:35:20;;;;;;;13.43;8.20;;;;;;;14.04;62.24;100421.03;8452190;33;20545;-69
2020/12/19 10:40:22;;;;;;;15.68;9.00;;;;;;;14.33;60.83;100409.72;8448004;34;20434;-70
2020/12/19 10:45:24;;;;;;;11.93;7.80;;;;;;;14.39;60.74;100396.63;8449484;33;20154;-70
2020/12/19 10:50:27;;;;;;;13.82;7.97;;;;;;;14.76;60.33;100382.84;8450398;34;20184;-70
2020/12/19 10:55:30;;;;;;;13.43;8.57;;;;;;;14.88;59.35;100367.47;8441853;33;20509;-70
2020/12/19 11:00:32;;;;;;;14.82;8.32;;;;;;;14.86;59.57;100356.00;8452293;34;21168;-71
2020/12/19 11:05:39;;;;;;;11.70;7.90;;;;;;;14.94;59.06;100366.97;8436514;34;20232;-70
2020/12/19 11:10:43;;;;;;;12.75;8.57;;;;;;;14.99;59.01;100378.19;8440304;34;20142;-70
2020/12/19 11:15:45;;;;;;;13.35;8.10;;;;;;;15.49;57.60;100381.00;8448151;34;20422;-71
2020/12/19 11:20:48;;;;;;;16.10;9.32;;;;;;;15.73;56.96;100363.72;8448315;34;20247;-71
2020/12/19 11:25:55;;;;;;;11.65;7.32;;;;;;;16.09;56.47;100364.09;8446606;33;20595;-71
2020/12/19 11:30:58;;;;;;;12.60;7.55;;;;;;;16.62;54.54;100358.38;8435131;34;20507;-70
2020/12/19 11:36:02;;;;;;;13.07;7.18;;;;;;;17.26;53.51;100348.78;8432275;33;20204;-70
2020/12/19 11:41:04;;;;;;;10.32;6.70;;;;;;;17.63;52.95;100339.81;8432401;34;20292;-70
2020/12/19 11:46:07;;;;;;;9.23;6.15;;;;;;;18.04;51.43;100333.06;8432142;33;20451;-71
2020/12/19 11:51:11;;;;;;;8.63;5.57;;;;;;;18.26;50.80;100333.66;8429558;34;20541;-70
2020/12/19 11:56:13;;;;;;;9.93;6.97;;;;;;;18.53;49.82;100330.88;8429907;33;20165;-71
2020/12/19 12:01:16;;;;;;;7.38;5.40;;;;;;;17.61;51.84;100325.63;8430836;34;20412;-70
2020/12/19 12:06:27;;;;;;;9.50;6.03;;;;;;;18.08;50.75;100312.84;8437415;33;20192;-70
2020/12/19 12:11:31;;;;;;;9.02;5.70;;;;;;;18.15;50.04;100313.94;8444201;34;20149;-70
2020/12/19 12:16:33;;;;;;;7.80;5.50;;;;;;;18.36;50.40;100316.34;8444793;33;20675;-71
2020/12/19 12:21:38;;;;;;;10.43;5.78;;;;;;;18.40;49.40;100314.16;8444671;34;20454;-70
2020/12/19 12:26:40;;;;;;;7.40;5.18;;;;;;;17.92;50.75;100315.38;8444512;33;21891;-70
2020/12/19 12:31:43;;;;;;;9.98;6.13;;;;;;;17.77;50.64;100329.38;8447354;34;20527;-70
2020/12/19 12:36:46;;;;;;;7.63;5.22;;;;;;;17.33;51.69;100337.25;8446350;33;20352;-70
2020/12/19 12:41:56;;;;;;;7.40;5.47;;;;;;;16.72;53.47;100332.22;8447767;34;20565;-70
2020/12/19 12:46:58;;;;;;;7.75;5.40;;;;;;;17.43;51.35;100328.25;8436403;33;20526;-70
2020/12/19 12:52:01;;;;;;;8.82;5.63;;;;;;;17.82;50.98;100311.88;8431634;34;20639;-71
2020/12/19 12:57:05;;;;;;;7.00;5.15;;;;;;;17.84;50.16;100312.59;8430430;33;20247;-71
2020/12/19 13:02:07;;;;;;;10.90;7.40;;;;;;;17.97;49.68;100313.06;8439688;33;20154;-71
2020/12/19 13:07:12;;;;;;;9.80;5.88;;;;;;;17.44;51.22;100309.22;8428773;33;20605;-71
2020/12/19 13:12:14;;;;;;;7.88;5.00;;;;;;;17.00;52.33;100308.94;8430695;34;20145;-71
2020/12/19 13:17:18;;;;;;;7.65;5.45;;;;;;;16.67;53.37;100302.13;8431246;33;20826;-71
2020/12/19 13:22:21;;;;;;;7.78;4.80;;;;;;;16.13;54.61;100300.88;8428637;34;20921;-70
2020/12/19 13:27:23;;;;;;;8.85;5.47;;;;;;;15.89;55.64;100298.56;8425979;33;21557;-70
2020/12/19 13:32:26;;;;;;;7.47;4.93;;;;;;;16.19;54.23;100300.31;8427930;34;20199;-71
2020/12/19 13:37:29;;;;;;;10.43;6.80;;;;;;;16.31;54.55;100284.84;8426721;33;20413;-71
2020/12/19 13:42:33;;;;;;;7.78;5.10;;;;;;;16.15;54.84;100290.78;8427067;34;20428;-70
2020/12/19 13:47:36;;;;;;;8.60;4.85;;;;;;;15.44;56.39;100301.63;8428398;33;20203;-70
2020/12/19 13:52:39;;;;;;;8.45;4.45;;;;;;;14.76;58.09;100295.94;8470606;33;20185;-70
2020/12/19 13:57:43;;;;;;;7.97;4.43;;;;;;;14.68;58.83;100288.50;8469063;33;20442;-70
2020/12/19 14:02:46;;;;;;;6.97;4.28;;;;;;;14.07;60.10;100299.88;8472509;33;20458;-70
2020/12/19 14:07:50;;;;;;;6.85;4.90;;;;;;;13.52;61.79;100294.50;8482396;33;20513;-70
2020/12/19 14:12:52;;;;;;;7.05;4.50;;;;;;;13.23;62.79;100294.09;8476878;33;20644;-70
2020/12/19 14:17:55;;;;;;;9.50;5.68;;;;;;;13.11;63.11;100284.38;8479441;33;20422;-70
2020/12/19 14:23:09;;;;;;;11.27;6.35;;;;;;;12.90;63.99;100298.47;8481600;33;20169;-70
2020/12/19 14:28:12;;;;;;;11.32;5.68;;;;;;;12.82;63.95;100292.00;8474274;33;20176;-70
2020/12/19 14:33:14;;;;;;;8.50;5.57;;;;;;;12.76;64.41;100292.47;8474715;33;20460;-70
2020/12/19 14:38:17;;;;;;;9.13;5.38;;;;;;;13.03;63.34;100281.44;8471830;33;20833;-70
2020/12/19 14:43:19;;;;;;;8.40;5.88;;;;;;;13.17;62.89;100289.22;8476400;33;20144;-70
2020/12/19 14:48:22;;;;;;;9.52;5.25;;;;;;;12.87;63.48;100297.84;8476593;33;20496;-70
2020/12/19 14:53:25;;;;;;;11.80;6.40;;;;;;;12.33;65.31;100301.97;8467866;33;20431;-70
2020/12/19 14:58:27;;;;;;;12.40;6.93;;;;;;;12.10;66.12;100302.84;8455385;33;20139;-70
2020/12/19 15:03:30;;;;;;;10.60;6.78;;;;;;;11.87;66.96;100294.66;8412140;34;21017;-70
2020/12/19 15:08:34;;;;;;;9.43;6.40;;;;;;;11.77;67.19;100302.50;8419169;33;20416;-70
2020/12/19 15:13:36;;;;;;;13.90;7.78;;;;;;;11.67;67.39;100301.47;8420572;34;20439;-70
2020/12/19 15:18:39;;;;;;;19.15;8.68;;;;;;;11.58;67.71;100319.03;8420084;33;20189;-70
2020/12/19 15:23:43;;;;;;;19.23;10.50;;;;;;;11.56;67.72;100312.94;8420358;34;20478;-70
2020/12/19 15:28:45;;;;;;;18.45;9.23;;;;;;;11.53;67.43;100328.38;8422849;33;20432;-71
2020/12/19 15:33:47;;;;;;;16.77;9.07;;;;;;;11.46;68.11;100332.44;8419871;34;20199;-71
2020/12/19 15:38:51;;;;;;;15.27;8.90;;;;;;;11.44;68.12;100331.72;8419768;33;20435;-71
2020/12/19 15:43:53;;;;;;;9.57;6.90;;;;;;;11.45;67.92;100328.91;8412698;34;20427;-70
2020/12/19 15:48:55;;;;;;;7.80;5.70;;;;;;;11.43;67.80;100330.84;8405243;33;20418;-70
2020/12/19 15:53:59;;;;;;;10.07;6.15;;;;;;;11.46;67.95;100327.09;8362438;34;20445;-72
2020/12/19 15:59:05;;;;;;;9.13;5.65;;;;;;;11.44;67.63;100331.72;8343682;34;20421;-70
2020/12/19 16:04:07;;;;;;;7.60;5.53;;;;;;;11.30;68.15;100335.38;8342974;34;20520;-70
2020/12/19 16:09:11;;;;;;;15.82;9.57;;;;;;;11.33;68.01;100324.44;8355005;34;20193;-70
2020/12/19 16:14:13;;;;;;;13.15;6.68;;;;;;;11.27;68.34;100324.84;8355984;34;20468;-70
2020/12/19 16:19:15;;;;;;;9.82;6.18;;;;;;;11.24;68.15;100336.63;8355437;34;20226;-70
2020/12/19 16:24:19;;;;;;;8.77;5.45;;;;;;;11.11;68.83;100327.78;8357526;34;20933;-71
2020/12/19 16:29:21;;;;;;;8.63;6.53;;;;;;;11.09;69.08;100340.41;8357753;34;20419;-70
2020/12/19 16:34:25;;;;;;;8.70;6.07;;;;;;;11.10;68.65;100350.13;8356043;34;20681;-71
2020/12/19 16:39:28;;;;;;;11.70;6.28;;;;;;;11.02;69.00;100352.47;8360869;34;20146;-71
2020/12/19 16:44:31;;;;;;;13.20;6.70;;;;;;;10.98;69.08;100353.66;8367288;34;20146;-70
2020/12/19 16:49:33;;;;;;;9.05;6.13;;;;;;;10.94;69.10;100362.81;8369462;34;20821;-71
2020/12/19 16:54:37;;;;;;;10.35;7.30;;;;;;;10.96;69.37;100368.94;8371581;34;20508;-70
2020/12/19 16:59:40;;;;;;;11.25;6.60;;;;;;;10.95;69.45;100367.22;8354118;34;20657;-71
2020/12/19 17:04:43;;;;;;;13.07;6.40;;;;;;;11.04;69.14;100372.78;8387900;34;20428;-70
2020/12/19 17:09:46;;;;;;;12.45;7.60;;;;;;;11.12;69.03;100374.94;8375274;34;20437;-71
2020/12/19 17:14:48;;;;;;;9.73;7.15;;;;;;;11.10;69.03;100380.38;8373485;34;20588;-71
2020/12/19 17:19:50;;;;;;;12.10;7.10;;;;;;;11.07;69.02;100377.91;8374641;34;20170;-70
2020/12/19 17:24:54;;;;;;;11.82;7.22;;;;;;;11.07;69.15;100383.25;8371372;34;20540;-70
2020/12/19 17:29:56;;;;;;;8.10;6.18;;;;;;;11.11;69.03;100387.47;8374943;34;20204;-70
2020/12/19 17:34:59;;;;;;;12.60;7.30;;;;;;;11.22;68.74;100399.22;8368487;34;20465;-72
2020/12/19 17:40:02;;;;;;;12.15;7.68;;;;;;;11.12;68.82;100407.88;8479367;34;20182;-70
2020/12/19 17:45:06;;;;;;;9.98;7.43;;;;;;;11.00;69.12;100408.72;8578356;34;20229;-70
2020/12/19 17:50:09;;;;;;;15.77;7.75;;;;;;;10.90;69.38;100411.16;8624052;34;20903;-71
2020/12/19 17:55:12;;;;;;;14.88;8.68;;;;;;;10.83;69.85;100412.56;8625246;34;20868;-70
2020/12/19 18:00:14;;;;;;;12.75;7.93;;;;;;;10.79;70.18;100411.03;8624677;34;20917;-71
2020/12/19 18:05:17;;;;;;;11.48;6.75;;;;;;;10.83;70.24;100401.84;8624385;34;20760;-72
2020/12/19 18:10:21;;;;;;;10.57;6.00;;;;;;;10.89;70.00;100411.28;8600267;34;20937;-70
2020/12/19 18:15:23;;;;;;;10.98;5.65;;;;;;;10.97;69.88;100413.41;8623929;34;20344;-70
2020/12/19 18:20:26;;;;;;;9.02;5.47;;;;;;;11.08;69.74;100418.91;8623740;34;20461;-69
2020/12/19 18:25:29;;;;;;;8.15;6.28;;;;;;;11.25;69.08;100417.75;8544672;34;20173;-70
2020/12/19 18:30:33;;;;;;;7.43;5.50;;;;;;;11.37;68.61;100429.41;8416626;34;20189;-70
2020/12/19 18:35:35;;;;;;;7.97;5.70;;;;;;;11.44;68.31;100423.53;8396529;34;20444;-70
2020/12/19 18:40:40;;;;;;;7.85;5.05;;;;;;;11.44;68.23;100422.66;8368357;34;20177;-70
2020/12/19 18:45:44;;;;;;;9.32;5.38;;;;;;;11.60;68.15;100420.63;8393076;34;20202;-70
2020/12/19 18:50:47;;;;;;;7.43;5.05;;;;;;;11.68;67.56;100428.97;8393831;34;20473;-70
2020/12/19 18:55:50;;;;;;;6.60;4.55;;;;;;;11.62;67.59;100423.19;8397623;34;20185;-70
2020/12/19 19:00:53;;;;;;;7.55;5.22;;;;;;;11.74;67.38;100431.22;8382468;34;20154;-71
2020/12/19 19:05:56;;;;;;;9.57;5.53;;;;;;;11.79;67.11;100437.09;8391958;34;20426;-71
2020/12/19 19:11:01;;;;;;;8.25;5.45;;;;;;;11.75;67.34;100442.75;8395972;34;20190;-71
2020/12/19 19:16:03;;;;;;;8.32;6.25;;;;;;;11.84;67.18;100439.44;8336202;34;20265;-70
2020/12/19 19:21:06;;;;;;;8.65;5.22;;;;;;;11.95;66.82;100434.19;8341712;34;20503;-70
2020/12/19 19:26:10;;;;;;;9.70;6.05;;;;;;;12.07;66.45;100435.16;8343697;34;20438;-71
2020/12/19 19:31:12;;;;;;;9.23;5.43;;;;;;;12.10;66.72;100447.47;8343803;34;20487;-71
2020/12/19 19:36:17;;;;;;;6.38;4.60;;;;;;;11.99;67.05;100440.19;8343878;34;20422;-71
2020/12/19 19:41:20;;;;;;;6.13;3.97;;;;;;;12.11;66.04;100441.97;8345975;34;20433;-72
2020/12/19 19:46:22;;;;;;;7.65;4.32;;;;;;;12.12;66.08;100427.63;8341530;34;20151;-71
2020/12/19 19:51:25;;;;;;;5.55;4.28;;;;;;;12.17;66.06;100427.28;8359488;34;20440;-71
2020/12/19 19:56:28;;;;;;;7.20;4.60;;;;;;;12.36;65.54;100435.69;8334838;34;20304;-72
2020/12/19 20:01:39;;;;;;;6.70;4.28;;;;;;;12.55;65.20;100434.34;8327431;34;20877;-70
2020/12/19 20:06:43;;;;;;;5.72;3.53;;;;;;;12.59;64.71;100449.22;8334954;34;20299;-70
2020/12/19 20:11:46;;;;;;;5.72;4.00;;;;;;;12.57;64.92;100448.47;8330807;34;20153;-71
2020/12/19 20:16:48;;;;;;;8.40;4.55;;;;;;;12.63;64.68;100458.75;8336322;34;20746;-71
2020/12/19 20:21:51;;;;;;;5.20;4.13;;;;;;;12.58;64.28;100460.91;8336409;34;20517;-71
2020/12/19 20:27:03;;;;;;;6.65;4.22;;;;;;;12.56;64.62;100473.56;8336571;34;20455;-71
2020/12/19 20:32:05;;;;;;;7.20;4.90;;;;;;;12.56;64.68;100478.91;8339796;34;20155;-71
2020/12/19 20:37:08;;;;;;;6.88;4.32;;;;;;;12.55;64.64;100479.91;8336223;34;20426;-71
2020/12/19 20:42:11;;;;;;;9.05;5.03;;;;;;;12.48;64.89;100475.94;8336334;34;20439;-71
2020/12/19 20:47:13;;;;;;;9.23;5.60;;;;;;;12.38;64.70;100490.03;8335460;34;20159;-71
2020/12/19 20:52:16;;;;;;;9.20;4.30;;;;;;;12.42;64.72;100482.59;8326856;34;20273;-72
2020/12/19 20:57:23;;;;;;;7.90;4.07;;;;;;;12.26;65.32;100487.38;8321775;34;20544;-71
2020/12/19 21:02:26;;;;;;;7.75;5.15;;;;;;;12.29;65.33;100492.53;8323917;34;20660;-71
2020/12/19 21:07:28;;;;;;;10.73;5.85;;;;;;;12.09;65.63;100489.44;8326646;34;20230;-71
2020/12/19 21:12:32;;;;;;;13.93;5.20;;;;;;;12.14;65.30;100489.13;8326486;34;20520;-71
2020/12/19 21:17:34;;;;;;;8.32;5.03;;;;;;;12.14;65.36;100498.00;8330921;34;20415;-72
2020/12/19 21:22:41;;;;;;;7.95;5.38;;;;;;;12.23;64.95;100508.06;8315942;34;20266;-71
2020/12/19 21:27:46;;;;;;;8.38;4.90;;;;;;;12.07;65.16;100510.13;8338974;34;20147;-71
2020/12/19 21:32:48;;;;;;;10.38;5.05;;;;;;;12.24;64.98;100504.41;8338933;34;20436;-70
2020/12/19 21:37:50;;;;;;;12.18;6.10;;;;;;;12.19;65.17;100506.56;8334017;34;20650;-71
2020/12/19 21:42:54;;;;;;;8.70;5.60;;;;;;;12.18;65.19;100512.91;8324609;34;20932;-71
2020/12/19 21:47:56;;;;;;;6.82;5.15;;;;;;;12.18;65.36;100514.72;8324918;34;21564;-71
2020/12/19 21:52:59;;;;;;;6.68;4.75;;;;;;;12.13;65.52;100507.00;8322985;34;20514;-71
2020/12/19 21:58:02;;;;;;;5.70;4.43;;;;;;;12.21;65.66;100509.16;8321212;34;20147;-71
2020/12/19 22:03:05;;;;;;;8.63;4.80;;;;;;;12.24;65.21;100516.97;8319822;34;20433;-71
2020/12/19 22:08:07;;;;;;;10.50;5.25;;;;;;;12.30;65.14;100524.53;8318241;34;20474;-72
2020/12/19 22:13:10;;;;;;;7.78;4.93;;;;;;;12.35;65.07;100527.75;8315898;34;20193;-70
2020/12/19 22:18:15;;;;;;;6.50;4.40;;;;;;;12.44;64.65;100527.09;8315689;34;20431;-70
2020/12/19 22:23:18;;;;;;;8.77;4.67;;;;;;;12.47;64.80;100523.31;8318836;34;21188;-70
2020/12/19 22:28:21;;;;;;;5.97;4.30;;;;;;;12.49;64.78;100520.53;8321784;34;21539;-70
2020/12/19 22:33:24;;;;;;;6.53;4.45;;;;;;;12.42;64.72;100533.50;8322429;34;20426;-70
2020/12/19 22:38:26;;;;;;;9.25;4.85;;;;;;;12.33;65.09;100529.69;8323527;34;20750;-70
2020/12/19 22:43:29;;;;;;;5.47;4.20;;;;;;;12.37;64.94;100524.97;8324841;34;20507;-70
2020/12/19 22:48:32;;;;;;;9.07;4.63;;;;;;;12.31;64.99;100533.44;8330359;34;20496;-70
2020/12/19 22:53:34;;;;;;;7.10;4.32;;;;;;;12.31;65.12;100528.94;8324172;34;20648;-70
2020/12/19 22:58:38;;;;;;;7.20;4.95;;;;;;;12.21;65.53;100535.94;8322715;34;20281;-70
2020/12/19 23:03:40;;;;;;;8.43;5.30;;;;;;;12.18;65.56;100536.16;8323187;34;20190;-71
2020/12/19 23:08:43;;;;;;;8.15;5.55;;;;;;;12.20;65.66;100543.13;8322907;34;21052;-71
2020/12/19 23:13:46;;;;;;;6.18;4.47;;;;;;;12.14;65.62;100548.88;8376000;34;20433;-71
2020/12/19 23:18:48;;;;;;;8.70;5.68;;;;;;;12.09;65.80;100545.66;8373860;34;20297;-71